Time;durP1;ratioP1;P1;durP2;ratioP2;P2;SDS_P1;SDS_P2;PMS_P1;PMS_P2;Temp;Humidity;BMP_temperature;BMP_pressure;BME280_temperature;BME280_humidity;BME280_pressure;Samples;Min_cycle;Max_cycle;Signal;HPM_P1;HPM_P2
2024/04/08 00:01:56;;;;;;;3.80;1.50;;;20.50;72.80;;;;;;4952165;28;20015;-34
2024/04/08 00:04:22;;;;;;;1.90;1.40;;;20.50;72.90;;;;;;4954530;28;20027;-38
2024/04/08 00:06:48;;;;;;;2.55;1.42;;;20.50;72.90;;;;;;4956026;28;20063;-38
2024/04/08 00:09:14;;;;;;;2.28;1.42;;;20.50;73.10;;;;;;4954383;28;20031;-35
2024/04/08 00:11:40;;;;;;;3.88;1.90;;;20.50;73.00;;;;;;4958856;28;20510;-34
2024/04/08 00:14:05;;;;;;;1.90;1.40;;;20.50;73.70;;;;;;4958230;28;20517;-38
2024/04/08 00:16:31;;;;;;;2.67;1.45;;;20.40;73.00;;;;;;4960909;28;20039;-35
2024/04/08 00:18:57;;;;;;;2.55;1.40;;;20.40;73.00;;;;;;4951384;28;20074;-36
2024/04/08 00:21:23;;;;;;;2.83;1.65;;;20.40;73.00;;;;;;4961335;29;20475;-35
2024/04/08 00:23:48;;;;;;;1.90;1.60;;;20.40;73.10;;;;;;4958450;28;20027;-36
2024/04/08 00:26:14;;;;;;;2.20;1.50;;;20.30;73.10;;;;;;4958678;28;20039;-34
2024/04/08 00:28:40;;;;;;;3.20;1.95;;;20.30;73.10;;;;;;4958548;28;20054;-36
2024/04/08 00:31:07;;;;;;;3.47;1.90;;;20.30;73.10;;;;;;4954549;29;20028;-35
2024/04/08 00:33:34;;;;;;;2.20;1.45;;;20.30;73.10;;;;;;4960457;29;20035;-38
2024/04/08 00:36:01;;;;;;;1.95;1.42;;;20.30;73.20;;;;;;4958602;28;20054;-38
2024/04/08 00:38:27;;;;;;;1.83;1.50;;;20.30;73.20;;;;;;4961577;28;20031;-39
2024/04/08 00:40:52;;;;;;;2.63;1.40;;;20.20;73.20;;;;;;4954478;28;20071;-36
2024/04/08 00:43:18;;;;;;;2.70;1.50;;;20.20;73.20;;;;;;4954284;28;20027;-36
2024/04/08 00:45:50;;;;;;;2.58;1.67;;;20.20;73.30;;;;;;4952542;29;20116;-38
2024/04/08 00:48:17;;;;;;;3.25;1.52;;;20.20;73.30;;;;;;4938161;28;20110;-35
2024/04/08 00:50:46;;;;;;;1.90;1.70;;;20.20;73.30;;;;;;4955834;28;20023;-34
2024/04/08 00:53:13;;;;;;;2.83;1.80;;;20.10;73.30;;;;;;4952996;29;20444;-36
2024/04/08 00:55:41;;;;;;;2.90;1.70;;;20.10;73.30;;;;;;4959065;28;20417;-38
2024/04/08 00:58:07;;;;;;;2.55;1.73;;;20.10;73.30;;;;;;4954269;28;20672;-36
2024/04/08 01:00:33;;;;;;;3.28;1.52;;;20.10;73.30;;;;;;4954850;28;20359;-33
2024/04/08 01:03:02;;;;;;;2.20;1.60;;;20.10;73.30;;;;;;4942262;28;20027;-36
2024/04/08 01:05:28;;;;;;;2.28;1.52;;;20.00;73.30;;;;;;4955228;28;20860;-37
2024/04/08 01:07:54;;;;;;;2.38;1.58;;;20.00;73.30;;;;;;4952057;29;20027;-35
2024/04/08 01:10:20;;;;;;;1.67;1.38;;;20.00;73.40;;;;;;4945678;28;20032;-34
2024/04/08 01:12:46;;;;;;;2.25;1.60;;;20.00;73.40;;;;;;4953814;28;20034;-38
2024/04/08 01:15:13;;;;;;;2.83;1.70;;;20.00;73.40;;;;;;4958639;28;20015;-36
2024/04/08 01:17:39;;;;;;;2.55;1.80;;;19.90;73.50;;;;;;4959058;29;20087;-35
2024/04/08 01:20:05;;;;;;;2.38;1.65;;;19.90;73.50;;;;;;4959877;29;20040;-35
2024/04/08 01:22:32;;;;;;;2.63;1.70;;;19.90;73.50;;;;;;4947036;28;20024;-35
2024/04/08 01:24:58;;;;;;;2.60;1.60;;;19.90;73.50;;;;;;4962341;29;20027;-39
2024/04/08 01:27:25;;;;;;;3.03;1.50;;;19.90;73.50;;;;;;4959785;28;20059;-35
2024/04/08 01:29:51;;;;;;;2.20;1.50;;;19.90;73.50;;;;;;4957530;29;20099;-38
2024/04/08 01:32:17;;;;;;;2.85;1.50;;;19.80;73.40;;;;;;4932043;29;20036;-36
2024/04/08 01:34:42;;;;;;;2.30;1.70;;;19.80;73.40;;;;;;4956540;29;20027;-38
2024/04/08 01:37:08;;;;;;;1.58;1.33;;;19.80;73.50;;;;;;4956132;28;20381;-36
2024/04/08 01:39:35;;;;;;;3.65;1.58;;;19.80;73.50;;;;;;4962318;29;20038;-35
2024/04/08 01:42:00;;;;;;;2.13;1.48;;;19.80;73.60;;;;;;4954971;28;20482;-37
2024/04/08 01:44:26;;;;;;;2.05;1.50;;;19.70;73.50;;;;;;4956668;29;20027;-35
2024/04/08 01:46:52;;;;;;;2.60;1.58;;;19.70;73.60;;;;;;4957539;28;20027;-38
2024/04/08 01:49:17;;;;;;;2.50;1.50;;;19.70;73.60;;;;;;4956413;29;20495;-38
2024/04/08 01:51:43;;;;;;;2.47;1.60;;;19.60;73.60;;;;;;4958915;28;20241;-39
2024/04/08 01:54:12;;;;;;;2.40;1.40;;;19.70;73.60;;;;;;4956210;29;20058;-35
2024/04/08 01:56:40;;;;;;;2.22;1.60;;;19.60;73.60;;;;;;4958490;28;20026;-35
2024/04/08 01:59:06;;;;;;;1.52;1.42;;;19.60;73.70;;;;;;4959072;28;20032;-35
2024/04/08 02:01:32;;;;;;;2.40;1.70;;;19.60;73.70;;;;;;4955454;28;20046;-33
2024/04/08 02:03:57;;;;;;;2.92;1.70;;;19.60;73.80;;;;;;4958834;29;20062;-39
2024/04/08 02:06:23;;;;;;;2.85;1.70;;;19.60;74.40;;;;;;4937332;29;20047;-38
2024/04/08 02:08:49;;;;;;;3.08;1.77;;;19.50;73.70;;;;;;4962953;29;20581;-36
2024/04/08 02:11:15;;;;;;;1.88;1.55;;;19.50;73.80;;;;;;4958883;28;20019;-38
2024/04/08 02:13:44;;;;;;;2.22;1.50;;;19.50;73.70;;;;;;4955893;28;20046;-34
2024/04/08 02:16:10;;;;;;;1.77;1.42;;;19.50;73.80;;;;;;4955232;28;20392;-36
2024/04/08 02:18:36;;;;;;;2.75;1.40;;;19.50;73.80;;;;;;4959241;29;20078;-36
2024/04/08 02:21:02;;;;;;;1.60;1.42;;;19.50;73.80;;;;;;4951026;28;20036;-38
2024/04/08 02:23:28;;;;;;;2.13;1.60;;;19.40;73.90;;;;;;4956458;29;20024;-36
2024/04/08 02:25:54;;;;;;;2.35;1.63;;;19.40;73.90;;;;;;4963062;28;20011;-37
2024/04/08 02:28:19;;;;;;;2.25;1.60;;;19.40;73.90;;;;;;4956149;28;20055;-38
2024/04/08 02:30:45;;;;;;;2.05;1.48;;;19.40;73.90;;;;;;4953623;29;20033;-37
2024/04/08 02:33:11;;;;;;;2.70;1.52;;;19.40;73.90;;;;;;4962225;28;20031;-36
2024/04/08 02:35:38;;;;;;;1.95;1.40;;;19.30;73.90;;;;;;4960211;28;20419;-35
2024/04/08 02:38:04;;;;;;;2.40;1.50;;;19.30;73.90;;;;;;4960704;28;20106;-35
2024/04/08 02:40:34;;;;;;;3.80;1.60;;;19.30;74.00;;;;;;4956242;28;20059;-35
2024/04/08 02:43:02;;;;;;;2.38;1.60;;;19.30;74.00;;;;;;4957086;28;20029;-38
2024/04/08 02:45:28;;;;;;;2.58;1.50;;;19.20;73.90;;;;;;4956080;28;20039;-38
2024/04/08 02:47:58;;;;;;;2.42;1.65;;;19.30;74.00;;;;;;4955713;28;20799;-36
2024/04/08 02:50:24;;;;;;;2.28;1.70;;;19.20;74.00;;;;;;4956472;28;20039;-39
2024/04/08 02:52:50;;;;;;;2.13;1.30;;;19.20;74.00;;;;;;4950976;28;20035;-37
2024/04/08 02:55:16;;;;;;;1.92;1.50;;;19.20;74.00;;;;;;4957257;29;20098;-38
2024/04/08 02:57:42;;;;;;;2.75;1.40;;;19.20;74.00;;;;;;4953949;28;20069;-37
2024/04/08 03:00:10;;;;;;;1.98;1.60;;;19.20;74.00;;;;;;4958061;28;20098;-38
2024/04/08 03:02:36;;;;;;;2.28;1.52;;;19.20;74.00;;;;;;4954426;29;20135;-38
2024/04/08 03:05:02;;;;;;;3.35;1.60;;;19.10;74.00;;;;;;4954787;29;20051;-38
2024/04/08 03:07:28;;;;;;;2.80;1.80;;;19.10;74.10;;;;;;4959397;28;20121;-34
2024/04/08 03:09:54;;;;;;;2.25;1.48;;;19.10;74.10;;;;;;4956933;29;20114;-38
2024/04/08 03:13:40;;;;;;;3.22;1.50;;;19.10;74.10;;;;;;5537671;25;20453;-37
2024/04/08 03:16:06;;;;;;;2.63;1.83;;;19.00;74.10;;;;;;5508566;26;20030;-37
2024/04/08 03:18:31;;;;;;;2.60;2.15;;;19.00;74.10;;;;;;5477586;26;20002;-37
2024/04/08 03:20:59;;;;;;;4.40;1.70;;;19.00;74.10;;;;;;5513542;26;20004;-37
2024/04/08 03:23:25;;;;;;;1.75;1.60;;;19.00;74.20;;;;;;5503724;25;19998;-38
2024/04/08 03:26:02;;;;;;;2.05;1.65;;;19.00;74.20;;;;;;5512224;26;20002;-35
2024/04/08 03:28:28;;;;;;;1.70;1.60;;;19.00;74.30;;;;;;5430630;26;20013;-33
2024/04/08 03:30:55;;;;;;;2.38;1.70;;;19.00;74.30;;;;;;5496677;26;20005;-39
2024/04/08 03:33:22;;;;;;;2.78;1.80;;;19.00;74.40;;;;;;5510554;26;20016;-38
2024/04/08 03:35:48;;;;;;;2.63;1.80;;;18.90;74.40;;;;;;5480607;26;20477;-36
2024/04/08 03:38:15;;;;;;;1.77;1.60;;;18.90;74.40;;;;;;5499929;25;20013;-34
2024/04/08 03:40:42;;;;;;;3.05;1.67;;;18.90;74.40;;;;;;5507866;26;20045;-37
2024/04/08 03:43:08;;;;;;;2.97;2.00;;;18.90;74.40;;;;;;5503300;25;20013;-36
2024/04/08 03:45:34;;;;;;;3.38;2.00;;;18.90;74.50;;;;;;5468607;26;20012;-37
2024/04/08 03:47:59;;;;;;;2.00;1.70;;;18.80;74.40;;;;;;5441679;26;19994;-38
2024/04/08 03:50:34;;;;;;;2.00;1.70;;;18.80;74.40;;;;;;5501028;26;20002;-35
2024/04/08 03:53:00;;;;;;;2.60;1.90;;;18.90;74.60;;;;;;5500761;26;20009;-38
2024/04/08 03:55:27;;;;;;;1.88;1.55;;;18.80;74.60;;;;;;5505617;26;20395;-36
2024/04/08 03:57:53;;;;;;;3.47;2.00;;;18.80;74.60;;;;;;5499574;25;20012;-35
2024/04/08 04:00:24;;;;;;;2.85;2.00;;;18.80;74.60;;;;;;5505527;26;20005;-37
2024/04/08 04:02:53;;;;;;;3.45;2.17;;;18.80;74.60;;;;;;5505880;25;20009;-38
2024/04/08 04:05:19;;;;;;;2.42;2.00;;;18.70;74.60;;;;;;5496371;25;20456;-37
2024/04/08 04:07:45;;;;;;;3.05;2.05;;;18.70;74.60;;;;;;5473065;26;20003;-38
2024/04/08 04:10:11;;;;;;;2.85;1.98;;;18.70;74.60;;;;;;5447724;25;19998;-38
2024/04/08 04:12:38;;;;;;;2.17;1.98;;;18.70;74.70;;;;;;5511914;26;19994;-36
2024/04/08 04:15:05;;;;;;;2.97;1.90;;;18.70;74.70;;;;;;5504631;26;20006;-37
2024/04/08 04:17:31;;;;;;;2.78;1.90;;;18.70;74.70;;;;;;5499521;25;20013;-35
2024/04/08 04:19:57;;;;;;;3.05;2.05;;;18.70;74.70;;;;;;5502849;26;20047;-38
2024/04/08 04:22:24;;;;;;;2.97;1.95;;;18.60;74.60;;;;;;5460150;25;19995;-35
2024/04/08 04:24:49;;;;;;;3.28;2.05;;;18.70;74.70;;;;;;5464591;26;20074;-38
2024/04/08 04:27:15;;;;;;;2.70;1.90;;;18.60;74.60;;;;;;5465101;26;20097;-36
2024/04/08 04:29:41;;;;;;;2.70;2.00;;;18.60;74.70;;;;;;5435162;26;20418;-37
2024/04/08 04:32:07;;;;;;;2.90;1.90;;;18.60;74.70;;;;;;5488792;26;19995;-38
2024/04/08 04:34:33;;;;;;;3.20;2.30;;;18.60;74.80;;;;;;5478669;26;20513;-37
2024/04/08 04:36:59;;;;;;;3.55;2.30;;;18.60;74.80;;;;;;5462964;26;19999;-35
2024/04/08 04:39:25;;;;;;;4.47;2.08;;;18.60;74.80;;;;;;5458411;26;20395;-37
2024/04/08 04:41:52;;;;;;;3.78;2.30;;;18.50;74.80;;;;;;5481412;26;20058;-34
2024/04/08 04:44:18;;;;;;;4.13;2.60;;;18.60;74.90;;;;;;5490001;26;20093;-38
2024/04/08 04:46:44;;;;;;;3.50;1.98;;;18.50;74.90;;;;;;5456845;26;20013;-36
2024/04/08 04:49:10;;;;;;;2.70;2.20;;;18.50;74.90;;;;;;5487501;26;19998;-38
2024/04/08 04:51:35;;;;;;;3.50;2.42;;;18.50;74.90;;;;;;5455967;26;21971;-35
2024/04/08 04:54:01;;;;;;;2.70;2.00;;;18.50;75.00;;;;;;5484210;26;20457;-36
2024/04/08 04:56:27;;;;;;;4.22;2.30;;;18.50;75.00;;;;;;5454785;26;19994;-37
2024/04/08 04:58:53;;;;;;;3.17;2.20;;;18.50;75.00;;;;;;5453833;26;19994;-37
2024/04/08 05:01:18;;;;;;;3.20;2.10;;;18.40;74.90;;;;;;5456554;26;20003;-37
2024/04/08 05:03:44;;;;;;;3.58;2.05;;;18.50;75.00;;;;;;5474358;26;20002;-38
2024/04/08 05:06:10;;;;;;;3.42;2.30;;;18.40;75.00;;;;;;5486737;26;19998;-34
2024/04/08 05:08:36;;;;;;;3.80;2.33;;;18.40;75.00;;;;;;5478872;26;20014;-36
2024/04/08 05:11:01;;;;;;;2.97;2.45;;;18.40;75.10;;;;;;5475011;26;20003;-38
2024/04/08 05:13:27;;;;;;;2.90;2.17;;;18.40;75.00;;;;;;5448222;26;20066;-37
2024/04/08 05:16:00;;;;;;;4.57;2.90;;;18.40;75.00;;;;;;5488391;26;19998;-36
2024/04/08 05:18:27;;;;;;;2.38;2.17;;;18.40;75.10;;;;;;5478259;26;20355;-38
2024/04/08 05:20:53;;;;;;;2.50;2.00;;;18.40;75.10;;;;;;5457744;26;19998;-34
2024/04/08 05:23:21;;;;;;;2.58;2.15;;;18.30;75.10;;;;;;5454793;26;20329;-37
2024/04/08 05:25:47;;;;;;;3.70;2.33;;;18.30;75.20;;;;;;5463235;26;19997;-34
2024/04/08 05:28:13;;;;;;;2.40;2.00;;;18.30;75.20;;;;;;5482562;26;20022;-38
2024/04/08 05:30:40;;;;;;;3.33;2.35;;;18.30;75.20;;;;;;5474543;26;20005;-37
2024/04/08 05:33:06;;;;;;;2.83;2.40;;;18.30;75.20;;;;;;5488956;26;20033;-35
2024/04/08 05:35:32;;;;;;;4.07;2.33;;;18.30;75.20;;;;;;5484721;26;19995;-36
2024/04/08 05:37:58;;;;;;;3.30;2.28;;;18.30;75.20;;;;;;5457180;26;20006;-38
2024/04/08 05:40:23;;;;;;;2.95;2.28;;;18.20;75.20;;;;;;5450245;26;19999;-37
2024/04/08 05:42:49;;;;;;;2.28;2.08;;;18.20;75.20;;;;;;5489387;26;20009;-37
2024/04/08 05:45:15;;;;;;;4.68;2.80;;;18.20;75.30;;;;;;5447456;26;20072;-38
2024/04/08 05:47:41;;;;;;;3.47;2.38;;;18.20;75.30;;;;;;5487669;26;19994;-38
2024/04/08 05:50:07;;;;;;;3.10;2.40;;;18.20;75.30;;;;;;5492586;26;19998;-41
2024/04/08 05:52:34;;;;;;;3.28;2.20;;;18.20;75.30;;;;;;5434186;26;20009;-39
2024/04/08 05:55:00;;;;;;;5.05;2.47;;;18.20;75.30;;;;;;5488194;26;20006;-40
2024/04/08 05:57:26;;;;;;;3.47;2.42;;;18.10;75.30;;;;;;5494107;26;20002;-41
2024/04/08 05:59:52;;;;;;;3.30;2.50;;;18.20;75.50;;;;;;5489079;26;20509;-39
2024/04/08 06:02:18;;;;;;;2.92;2.25;;;18.10;75.40;;;;;;5488112;26;20006;-40
2024/04/08 06:04:45;;;;;;;3.05;2.40;;;18.10;75.30;;;;;;5493045;26;20051;-40
2024/04/08 06:07:11;;;;;;;3.75;2.45;;;18.10;75.40;;;;;;5487237;26;20001;-36
2024/04/08 06:09:37;;;;;;;2.80;2.33;;;18.10;75.40;;;;;;5489159;26;20010;-38
2024/04/08 06:12:03;;;;;;;3.60;2.60;;;18.10;75.40;;;;;;5494216;26;20013;-40
2024/04/08 06:14:29;;;;;;;3.38;2.33;;;18.10;75.40;;;;;;5456561;26;20363;-40
2024/04/08 06:16:58;;;;;;;3.92;2.63;;;18.10;75.50;;;;;;5515063;26;19995;-39
2024/04/08 06:19:24;;;;;;;2.95;2.50;;;18.10;75.50;;;;;;5477665;26;20038;-38
2024/04/08 06:21:50;;;;;;;3.28;2.47;;;18.10;75.50;;;;;;5495577;26;20461;-40
2024/04/08 06:24:16;;;;;;;3.10;2.22;;;18.10;75.50;;;;;;5461232;26;20449;-41
2024/04/08 06:26:41;;;;;;;3.10;2.20;;;18.10;75.50;;;;;;5457370;26;20078;-38
2024/04/08 06:29:07;;;;;;;3.30;2.30;;;18.10;75.60;;;;;;5460603;26;19998;-41
2024/04/08 06:31:33;;;;;;;3.40;2.55;;;18.00;75.60;;;;;;5463148;26;20012;-39
2024/04/08 06:33:59;;;;;;;4.53;2.60;;;18.10;75.60;;;;;;5492443;26;20006;-40
2024/04/08 06:36:25;;;;;;;3.33;2.22;;;18.00;75.60;;;;;;5483999;26;19994;-40
2024/04/08 06:38:51;;;;;;;3.15;2.40;;;18.10;75.70;;;;;;5457516;26;19999;-40
2024/04/08 06:41:18;;;;;;;2.88;2.40;;;18.00;75.60;;;;;;5459398;26;20051;-40
2024/04/08 06:43:44;;;;;;;3.38;2.25;;;18.00;75.70;;;;;;5495435;26;20466;-40
2024/04/08 06:46:10;;;;;;;3.70;2.60;;;18.00;75.70;;;;;;5462711;26;20044;-40
2024/04/08 06:48:36;;;;;;;3.35;2.55;;;18.00;75.80;;;;;;5481000;26;20013;-38
2024/04/08 06:51:04;;;;;;;3.38;2.38;;;18.00;76.40;;;;;;5494126;26;20019;-41
2024/04/08 06:53:30;;;;;;;2.95;2.40;;;18.00;75.80;;;;;;5486267;26;20330;-40
2024/04/08 06:55:55;;;;;;;3.05;2.40;;;18.00;75.80;;;;;;5492765;26;19994;-40
2024/04/08 06:58:22;;;;;;;3.35;2.45;;;18.00;75.80;;;;;;5455607;26;19994;-39
2024/04/08 07:00:48;;;;;;;3.05;2.47;;;18.00;75.90;;;;;;5462428;26;20093;-37
2024/04/08 07:03:14;;;;;;;3.30;2.30;;;18.00;75.90;;;;;;5470910;26;20446;-40
2024/04/08 07:05:41;;;;;;;3.47;2.50;;;18.00;75.90;;;;;;5455048;26;20035;-39
2024/04/08 07:08:07;;;;;;;3.25;2.47;;;18.10;76.00;;;;;;5489537;26;20059;-39
2024/04/08 07:10:35;;;;;;;2.90;2.35;;;18.00;75.90;;;;;;5494352;26;19994;-40
2024/04/08 07:13:01;;;;;;;3.85;2.40;;;18.00;75.90;;;;;;5472101;26;20002;-40
2024/04/08 07:15:27;;;;;;;2.85;2.25;;;18.00;75.90;;;;;;5472284;26;19995;-40
2024/04/08 07:17:53;;;;;;;3.10;2.30;;;18.00;75.90;;;;;;5450942;26;20051;-41
2024/04/08 07:20:19;;;;;;;3.25;2.30;;;18.00;75.90;;;;;;5488967;26;20013;-38
2024/04/08 07:22:46;;;;;;;3.50;2.30;;;18.00;75.90;;;;;;5492713;26;19999;-40
2024/04/08 07:25:12;;;;;;;3.63;2.67;;;18.00;75.90;;;;;;5455573;26;20023;-40
2024/04/08 07:27:37;;;;;;;3.28;2.35;;;18.00;75.90;;;;;;5477646;26;20009;-38
2024/04/08 07:30:04;;;;;;;3.85;2.47;;;18.00;75.90;;;;;;5492811;26;20003;-40
2024/04/08 07:32:30;;;;;;;5.03;2.70;;;18.10;76.00;;;;;;5466087;26;19998;-41
2024/04/08 07:34:56;;;;;;;3.28;2.58;;;18.10;75.90;;;;;;5523617;25;19998;-38
2024/04/08 07:37:22;;;;;;;2.85;2.33;;;18.10;75.90;;;;;;5484846;26;20808;-38
2024/04/08 07:39:49;;;;;;;3.40;2.65;;;18.10;75.90;;;;;;5479214;26;20014;-35
2024/04/08 07:42:15;;;;;;;3.38;2.13;;;18.10;75.90;;;;;;5428675;26;19998;-36
2024/04/08 07:44:41;;;;;;;3.25;2.40;;;18.10;75.90;;;;;;5484202;26;20017;-38
2024/04/08 07:47:07;;;;;;;3.20;2.38;;;18.10;75.90;;;;;;5489789;26;20368;-36
2024/04/08 07:49:32;;;;;;;3.88;2.70;;;18.10;75.90;;;;;;5483834;26;20013;-37
2024/04/08 07:51:58;;;;;;;3.10;2.25;;;18.20;75.90;;;;;;5479213;26;19998;-34
2024/04/08 07:54:24;;;;;;;2.70;2.20;;;18.20;75.90;;;;;;5447896;26;19995;-38
2024/04/08 07:56:49;;;;;;;2.63;2.10;;;18.20;75.90;;;;;;5478946;26;20013;-38
2024/04/08 07:59:15;;;;;;;2.40;2.03;;;18.20;75.90;;;;;;5474392;26;20013;-37
2024/04/08 08:01:41;;;;;;;3.10;2.33;;;18.20;75.90;;;;;;5492588;26;20450;-36
2024/04/08 08:04:06;;;;;;;2.97;2.33;;;18.20;75.90;;;;;;5484550;26;19998;-37
2024/04/08 08:06:34;;;;;;;3.78;2.30;;;18.30;75.90;;;;;;5450602;26;19994;-38
2024/04/08 08:09:00;;;;;;;3.60;2.20;;;18.30;76.00;;;;;;5448746;26;20026;-36
2024/04/08 08:11:26;;;;;;;4.10;2.55;;;18.30;75.90;;;;;;5489019;26;20002;-34
2024/04/08 08:13:51;;;;;;;4.88;2.67;;;18.30;75.90;;;;;;5461252;26;20034;-37
2024/04/08 08:16:17;;;;;;;2.65;2.20;;;18.30;75.90;;;;;;5487810;26;20047;-34
2024/04/08 08:18:45;;;;;;;2.72;2.33;;;18.30;75.90;;;;;;5459614;26;19999;-36
2024/04/08 08:21:11;;;;;;;2.58;2.20;;;18.40;75.90;;;;;;5476789;26;20009;-38
2024/04/08 08:23:36;;;;;;;2.63;2.15;;;18.40;75.90;;;;;;5489761;26;20010;-38
2024/04/08 08:26:02;;;;;;;2.70;2.10;;;18.40;75.90;;;;;;5461251;26;20002;-37
2024/04/08 08:28:28;;;;;;;3.30;2.38;;;18.40;75.90;;;;;;5488709;26;20002;-31
2024/04/08 08:30:54;;;;;;;3.17;2.15;;;18.40;75.90;;;;;;5487215;26;20490;-35
2024/04/08 08:33:21;;;;;;;2.97;2.20;;;18.50;75.90;;;;;;5504171;25;20518;-32
2024/04/08 08:35:47;;;;;;;3.92;2.55;;;18.50;75.90;;;;;;5492152;26;19994;-38
2024/04/08 08:38:13;;;;;;;2.50;2.15;;;18.50;75.80;;;;;;5492027;26;20003;-33
2024/04/08 08:40:43;;;;;;;2.35;2.15;;;18.50;75.80;;;;;;5461792;26;19998;-36
2024/04/08 08:43:10;;;;;;;3.25;2.20;;;18.60;75.80;;;;;;5484493;26;20017;-38
2024/04/08 08:45:46;;;;;;;3.25;2.25;;;18.60;75.70;;;;;;5511453;25;20038;-36
2024/04/08 08:48:12;;;;;;;2.65;2.17;;;18.70;75.70;;;;;;5472543;26;19998;-39
2024/04/08 08:50:41;;;;;;;2.63;2.10;;;18.70;75.60;;;;;;5455996;26;20002;-40
2024/04/08 08:53:09;;;;;;;3.50;2.55;;;18.70;75.60;;;;;;5491577;26;20004;-35
2024/04/08 08:55:37;;;;;;;3.25;2.10;;;18.70;75.60;;;;;;5449954;26;20015;-36
2024/04/08 08:58:05;;;;;;;3.78;2.20;;;18.80;75.60;;;;;;5457916;26;20078;-36
2024/04/08 09:00:31;;;;;;;3.72;2.35;;;18.80;75.40;;;;;;5473482;26;20014;-36
2024/04/08 09:02:58;;;;;;;3.25;2.22;;;18.90;75.40;;;;;;5490455;26;20004;-37
2024/04/08 09:05:24;;;;;;;3.28;2.30;;;18.90;75.30;;;;;;5487421;26;20022;-35
2024/04/08 09:07:51;;;;;;;2.80;2.22;;;18.90;75.30;;;;;;5460363;26;20047;-35
2024/04/08 09:10:16;;;;;;;2.80;2.22;;;18.90;75.20;;;;;;5460744;26;20009;-34
2024/04/08 09:12:43;;;;;;;3.40;2.10;;;18.90;75.20;;;;;;5441988;26;20014;-34
2024/04/08 09:15:12;;;;;;;3.13;2.17;;;19.00;75.30;;;;;;5410938;26;20015;-35
2024/04/08 09:17:38;;;;;;;3.90;2.20;;;19.00;75.90;;;;;;5409089;26;20001;-37
2024/04/08 09:20:04;;;;;;;2.63;2.10;;;19.00;75.20;;;;;;5396909;26;19999;-36
2024/04/08 09:22:34;;;;;;;3.35;2.40;;;19.10;75.20;;;;;;5403657;26;20084;-36
2024/04/08 09:25:00;;;;;;;2.67;1.95;;;19.10;75.20;;;;;;5421279;26;20467;-36
2024/04/08 09:27:26;;;;;;;2.70;2.10;;;19.20;75.20;;;;;;5414340;26;20000;-35
2024/04/08 09:29:52;;;;;;;3.03;2.20;;;19.10;75.20;;;;;;5408278;26;20132;-37
2024/04/08 09:32:18;;;;;;;3.05;2.20;;;19.20;75.20;;;;;;5410817;26;20008;-37
2024/04/08 09:34:44;;;;;;;3.28;2.33;;;19.20;75.20;;;;;;5408739;26;19995;-34
2024/04/08 09:37:13;;;;;;;2.97;1.98;;;19.20;75.20;;;;;;5396615;26;20469;-34
2024/04/08 09:39:40;;;;;;;3.47;2.30;;;19.30;75.20;;;;;;5420386;26;20014;-40
2024/04/08 09:42:10;;;;;;;2.60;2.28;;;19.30;75.20;;;;;;5408082;26;20411;-38
2024/04/08 09:44:37;;;;;;;4.03;2.47;;;19.40;75.20;;;;;;5420039;26;20003;-37
2024/04/08 09:47:03;;;;;;;2.80;2.17;;;19.40;75.10;;;;;;5419990;26;20011;-39
2024/04/08 09:49:30;;;;;;;2.88;2.22;;;19.40;75.10;;;;;;5418840;26;20023;-38
2024/04/08 09:51:56;;;;;;;4.03;2.42;;;19.50;75.10;;;;;;5420726;26;20035;-38
2024/04/08 09:54:21;;;;;;;3.30;2.38;;;19.50;75.00;;;;;;5419184;26;20003;-37
2024/04/08 09:56:50;;;;;;;4.57;2.72;;;19.60;75.10;;;;;;5425589;26;19997;-38
2024/04/08 09:59:20;;;;;;;4.05;2.55;;;19.70;75.10;;;;;;5415493;26;20008;-35
2024/04/08 10:01:47;;;;;;;3.95;2.75;;;19.70;74.90;;;;;;5419827;26;19999;-37
2024/04/08 10:04:19;;;;;;;3.30;2.67;;;19.80;74.90;;;;;;5414483;26;20010;-36
2024/04/08 10:06:46;;;;;;;4.13;2.80;;;19.80;74.90;;;;;;5394489;26;20032;-38
2024/04/08 10:09:13;;;;;;;3.28;2.50;;;19.80;74.80;;;;;;5389186;26;20339;-38
2024/04/08 10:11:43;;;;;;;4.50;2.97;;;19.90;74.80;;;;;;5388480;26;20018;-34
2024/04/08 10:14:19;;;;;;;4.20;2.85;;;19.90;74.70;;;;;;5419870;26;20046;-36
2024/04/08 10:16:48;;;;;;;4.68;3.00;;;20.10;74.80;;;;;;5419718;26;20030;-36
2024/04/08 10:19:14;;;;;;;5.10;3.20;;;20.10;74.70;;;;;;5418326;26;19995;-37
2024/04/08 10:21:40;;;;;;;4.45;3.28;;;20.10;74.60;;;;;;5421216;26;20405;-38
2024/04/08 10:24:06;;;;;;;5.65;3.63;;;20.20;74.60;;;;;;5414762;26;19999;-36
2024/04/08 10:26:35;;;;;;;5.93;3.83;;;20.20;74.60;;;;;;5412855;26;20000;-36
2024/04/08 10:29:01;;;;;;;5.28;3.95;;;20.30;74.60;;;;;;5415662;26;20003;-36
2024/04/08 10:31:30;;;;;;;5.18;3.63;;;20.30;74.40;;;;;;5412196;26;20092;-35
2024/04/08 10:33:59;;;;;;;5.40;3.75;;;20.40;74.50;;;;;;5414123;26;20031;-38
2024/04/08 10:36:26;;;;;;;5.25;3.90;;;20.50;74.50;;;;;;5398475;26;20031;-36
2024/04/08 10:38:52;;;;;;;5.10;4.13;;;20.50;74.40;;;;;;5407161;26;20054;-38
2024/04/08 10:41:19;;;;;;;4.90;3.88;;;20.50;74.30;;;;;;5415998;26;20018;-32
2024/04/08 10:43:45;;;;;;;5.60;4.18;;;20.60;74.30;;;;;;5421446;26;20475;-33
2024/04/08 10:46:17;;;;;;;5.38;4.00;;;20.60;74.20;;;;;;5409196;26;19997;-35
2024/04/08 10:48:43;;;;;;;6.38;5.55;;;20.70;74.20;;;;;;5400889;26;20010;-38
2024/04/08 10:51:10;;;;;;;7.85;6.43;;;20.80;73.70;;;;;;5411960;26;20000;-37
2024/04/08 10:53:39;;;;;;;8.50;7.15;;;20.80;73.30;;;;;;5411529;26;20008;-34
2024/04/08 10:56:06;;;;;;;7.50;6.80;;;20.90;73.10;;;;;;5414656;26;20507;-36
2024/04/08 10:58:32;;;;;;;8.05;7.25;;;20.90;72.70;;;;;;5416234;26;20049;-37
2024/04/08 11:00:58;;;;;;;8.10;7.30;;;21.00;72.50;;;;;;5419842;26;20000;-38
2024/04/08 11:03:24;;;;;;;7.80;6.97;;;21.00;72.10;;;;;;5415974;26;20023;-34
2024/04/08 11:05:50;;;;;;;7.97;7.15;;;21.10;72.00;;;;;;5373918;26;20320;-35
2024/04/08 11:08:16;;;;;;;8.75;6.43;;;21.10;71.70;;;;;;5419256;26;20007;-39
2024/04/08 11:10:45;;;;;;;7.30;6.60;;;21.10;71.60;;;;;;5419833;26;20004;-39
2024/04/08 11:13:14;;;;;;;7.55;6.32;;;21.20;71.40;;;;;;5421032;26;20010;-35
2024/04/08 11:15:40;;;;;;;7.10;6.40;;;21.30;71.40;;;;;;5376854;26;20000;-34
2024/04/08 11:18:10;;;;;;;6.78;5.57;;;21.20;71.20;;;;;;5419884;26;19999;-37
2024/04/08 11:20:36;;;;;;;6.35;5.68;;;21.30;71.00;;;;;;5411367;26;20004;-35
2024/04/08 11:23:03;;;;;;;9.02;5.72;;;21.30;70.90;;;;;;5412463;26;20380;-39
2024/04/08 11:25:29;;;;;;;6.03;5.28;;;21.40;70.90;;;;;;5421417;26;20003;-34
2024/04/08 11:27:55;;;;;;;6.70;4.93;;;21.40;70.80;;;;;;5413742;26;19999;-36
2024/04/08 11:30:21;;;;;;;7.43;5.40;;;21.40;70.60;;;;;;5407132;26;20010;-37
2024/04/08 11:32:47;;;;;;;5.90;5.28;;;21.50;70.50;;;;;;5406707;26;20000;-35
2024/04/08 11:35:13;;;;;;;6.32;5.20;;;21.50;70.30;;;;;;5378871;26;20003;-36
2024/04/08 11:37:38;;;;;;;6.47;4.53;;;21.60;70.10;;;;;;5418978;26;20727;-36
2024/04/08 11:40:05;;;;;;;6.63;4.82;;;21.60;70.10;;;;;;5406312;26;20014;-36
2024/04/08 11:42:31;;;;;;;5.95;4.90;;;21.60;69.90;;;;;;5422804;26;20014;-38
2024/04/08 11:45:05;;;;;;;6.13;5.53;;;21.70;70.00;;;;;;5420658;26;19999;-36
2024/04/08 11:47:30;;;;;;;7.57;5.22;;;21.70;69.80;;;;;;5426763;26;19996;-36
2024/04/08 11:49:56;;;;;;;5.60;4.70;;;21.80;69.80;;;;;;5419888;26;20014;-35
2024/04/08 11:52:22;;;;;;;7.35;5.15;;;21.80;69.60;;;;;;5438035;26;19993;-35
2024/04/08 11:54:48;;;;;;;5.85;5.20;;;21.80;70.10;;;;;;5412290;26;20011;-35
2024/04/08 11:57:15;;;;;;;6.68;5.47;;;21.80;69.30;;;;;;5418985;26;20427;-38
2024/04/08 11:59:41;;;;;;;6.18;5.25;;;21.80;69.20;;;;;;5414836;26;20000;-32
2024/04/08 12:02:08;;;;;;;6.32;5.40;;;21.90;69.00;;;;;;5387548;26;20076;-36
2024/04/08 12:04:33;;;;;;;6.72;5.85;;;21.90;68.90;;;;;;5419430;26;20369;-39
2024/04/08 12:07:01;;;;;;;7.60;6.80;;;21.90;68.70;;;;;;5420763;26;20031;-35
2024/04/08 12:09:27;;;;;;;7.72;7.03;;;21.90;68.60;;;;;;5412158;26;20010;-34
2024/04/08 12:11:52;;;;;;;7.22;6.53;;;21.90;68.50;;;;;;5409513;26;20000;-31
2024/04/08 12:14:18;;;;;;;8.30;6.45;;;21.90;68.60;;;;;;5491778;26;20002;-35
2024/04/08 12:16:44;;;;;;;8.00;6.63;;;21.90;68.50;;;;;;5496216;26;20334;-37
2024/04/08 12:19:10;;;;;;;7.43;5.57;;;21.90;68.40;;;;;;5460624;26;20010;-36
2024/04/08 12:21:36;;;;;;;7.70;5.93;;;22.00;68.30;;;;;;5471458;26;19994;-35
2024/04/08 12:24:03;;;;;;;6.53;5.90;;;22.00;68.20;;;;;;5450264;26;20013;-35
2024/04/08 12:26:29;;;;;;;6.53;5.63;;;22.00;68.10;;;;;;5493643;26;20007;-36
2024/04/08 12:28:58;;;;;;;6.90;6.20;;;22.00;68.10;;;;;;5485236;26;19998;-35
2024/04/08 12:31:23;;;;;;;6.72;5.95;;;22.00;68.00;;;;;;5488347;26;20373;-33
2024/04/08 12:33:49;;;;;;;6.43;5.75;;;22.10;68.20;;;;;;5485231;26;20009;-34
2024/04/08 12:36:15;;;;;;;7.22;5.70;;;22.10;68.20;;;;;;5493231;26;19998;-34
2024/04/08 12:38:41;;;;;;;6.05;5.25;;;22.10;68.30;;;;;;5493424;26;19998;-35
2024/04/08 12:41:06;;;;;;;6.95;5.82;;;22.10;68.40;;;;;;5508376;25;19998;-35
2024/04/08 12:43:34;;;;;;;7.60;5.82;;;22.20;68.60;;;;;;5462297;26;20040;-38
2024/04/08 12:46:04;;;;;;;6.38;5.75;;;22.20;68.70;;;;;;5479465;26;20083;-34